This is the latest recevied weather packets stored in our database for station/object OE2ATN. If no packets are shown the sender has not sent any weather packets the latest 1 day(s).
| Time | Temp. | Humidity | Pressure | Rain* | Wind** | Luminosity | Snow |
|---|---|---|---|---|---|---|---|
| 1778049621 | 10° C | 73% | 1015.8 hPa | 0 mm | - | - | - |
| 1778049320 | 9.44° C | 68% | 1015.9 hPa | 0 mm | - | - | - |
| 1778049020 | 8.89° C | 67% | 1016 hPa | 0 mm | - | - | - |
| 1778048120 | 7.78° C | 45% | 1016.1 hPa | 0 mm | - | - | - |
| 1778047820 | 7.22° C | 41% | 1016.2 hPa | 0 mm | - | - | - |
| 1778047519 | 7.22° C | 34% | 1016.3 hPa | 0 mm | - | - | - |
| 1778046620 | 6.67° C | 27% | 1016.4 hPa | 0 mm | - | - | - |
| 1778046320 | 6.67° C | 30% | 1016.4 hPa | 0 mm | - | - | - |
| 1778046019 | 6.67° C | 29% | 1016.3 hPa | 0 mm | - | - | - |
| 1778045719 | 6.67° C | 26% | 1016.6 hPa | 0 mm | - | - | - |
| 1778044819 | 6.11° C | 24% | 1016.6 hPa | 0 mm | - | - | - |
| 1778044519 | 6.11° C | 29% | 1016.6 hPa | 0 mm | - | - | - |
| 1778044218 | 6.11° C | 35% | 1016.6 hPa | 0 mm | - | - | - |
| 1778043918 | 6.67° C | 39% | 1016.6 hPa | 0 mm | - | - | - |
| 1778043618 | 6.67° C | 31% | 1016.5 hPa | 0 mm | - | - | - |
| 1778042418 | 5.56° C | 22% | 1017 hPa | 0 mm | - | - | - |
| 1778042118 | 5.56° C | 22% | 1016.9 hPa | 0 mm | - | - | - |
| 1778041817 | 5.56° C | 25% | 1016.9 hPa | 0 mm | - | - | - |
| 1778041517 | 5.56° C | 30% | 1016.7 hPa | 0 mm | - | - | - |
| 1778040918 | 5.56° C | 26% | 1016.7 hPa | 0 mm | - | - | - |
| 1778040617 | 5.56° C | 17% | 1016.7 hPa | 0 mm | - | - | - |
| 1778040317 | 5° C | 19% | 1016.7 hPa | 0 mm | - | - | - |
| 1778039417 | 5° C | 30% | 1016.6 hPa | 0 mm | - | - | - |
| 1778039116 | 5° C | 40% | 1016.7 hPa | 0 mm | - | - | - |
| 1778038816 | 5° C | 47% | 1016.9 hPa | 0 mm | - | - | - |
* Rain latest hour (hover to see other rain measurements)
** Current wind speed in m/s (hover to see current wind gust speed)